Time;durP1;ratioP1;P1;durP2;ratioP2;P2;SDS_P1;SDS_P2;PMS_P1;PMS_P2;Temp;Humidity;BMP_temperature;BMP_pressure;BME280_temperature;BME280_humidity;BME280_pressure;Samples;Min_cycle;Max_cycle;Signal;HPM_P1;HPM_P2
2024/02/27 00:01:37;;;;;;;0.47;0.47;;;7.70;96.10;;;;;;5071451;28;20186;-62
2024/02/27 00:04:03;;;;;;;0.60;0.60;;;7.70;96.20;;;;;;5071607;28;20169;-62
2024/02/27 00:06:29;;;;;;;0.60;0.60;;;7.70;96.20;;;;;;5071357;28;20594;-62
2024/02/27 00:08:55;;;;;;;0.50;0.50;;;7.50;96.50;;;;;;5071370;28;20904;-62
2024/02/27 00:11:21;;;;;;;0.50;0.50;;;7.50;96.60;;;;;;5071462;28;20201;-62
2024/02/27 00:13:47;;;;;;;0.50;0.47;;;7.40;96.50;;;;;;5071375;28;20252;-62
2024/02/27 00:16:13;;;;;;;0.77;0.60;;;7.30;96.70;;;;;;5071458;28;20608;-62
2024/02/27 00:18:38;;;;;;;0.83;0.70;;;7.20;97.00;;;;;;5071061;28;20179;-62
2024/02/27 00:21:04;;;;;;;0.77;0.77;;;7.30;97.00;;;;;;5071006;28;20430;-62
2024/02/27 00:23:31;;;;;;;1.33;1.10;;;7.30;96.90;;;;;;5071429;28;20708;-62
2024/02/27 00:25:57;;;;;;;0.60;0.60;;;7.30;96.80;;;;;;5071147;28;20495;-62
2024/02/27 00:28:22;;;;;;;0.93;0.93;;;7.30;96.40;;;;;;5070727;28;20308;-62
2024/02/27 00:30:48;;;;;;;1.10;1.00;;;7.30;96.30;;;;;;5071270;28;20226;-62
2024/02/27 00:33:14;;;;;;;1.07;0.60;;;7.20;96.10;;;;;;5071276;28;20198;-62
2024/02/27 00:35:39;;;;;;;1.33;0.93;;;7.30;96.20;;;;;;5071079;28;20237;-62
2024/02/27 00:38:05;;;;;;;0.93;0.93;;;7.40;96.20;;;;;;5070893;28;20169;-62
2024/02/27 00:40:31;;;;;;;1.47;1.37;;;7.40;96.10;;;;;;5071035;28;20220;-62
2024/02/27 00:42:56;;;;;;;1.03;0.80;;;7.40;96.30;;;;;;5071188;28;20415;-62
2024/02/27 00:45:22;;;;;;;0.50;0.50;;;7.50;96.00;;;;;;5073898;28;20173;-62
2024/02/27 00:47:48;;;;;;;0.63;0.63;;;7.50;96.10;;;;;;5074567;28;20249;-62
2024/02/27 00:50:13;;;;;;;0.50;0.50;;;7.40;96.20;;;;;;5074778;28;20259;-62
2024/02/27 00:52:39;;;;;;;1.90;0.77;;;7.20;96.50;;;;;;5075015;28;20172;-62
2024/02/27 00:55:05;;;;;;;0.60;0.60;;;7.20;96.50;;;;;;5074730;28;20161;-62
2024/02/27 00:57:31;;;;;;;0.60;0.60;;;7.10;96.40;;;;;;5074516;28;20179;-62
2024/02/27 00:59:57;;;;;;;0.70;0.60;;;7.10;96.50;;;;;;5075082;28;20788;-62
2024/02/27 01:02:23;;;;;;;0.70;0.70;;;7.10;96.60;;;;;;5074629;28;20183;-62
2024/02/27 01:04:49;;;;;;;0.80;0.80;;;7.20;96.60;;;;;;5074519;28;20179;-62
2024/02/27 01:07:14;;;;;;;1.27;1.00;;;7.20;96.60;;;;;;5074283;28;20219;-62
2024/02/27 01:09:40;;;;;;;0.70;0.70;;;7.20;96.50;;;;;;5074421;28;20249;-62
2024/02/27 01:12:06;;;;;;;0.80;0.77;;;7.20;96.40;;;;;;5074480;28;20169;-62
2024/02/27 01:14:33;;;;;;;0.70;0.70;;;7.20;96.60;;;;;;5074384;28;20177;-62
2024/02/27 01:16:59;;;;;;;1.25;0.90;;;7.20;96.70;;;;;;5074244;28;20223;-62
2024/02/27 01:19:26;;;;;;;1.20;1.10;;;7.10;96.80;;;;;;5073723;28;20536;-62
2024/02/27 01:21:53;;;;;;;0.95;0.80;;;7.10;96.90;;;;;;5093687;28;20180;-62
2024/02/27 01:24:19;;;;;;;1.45;0.70;;;7.10;97.10;;;;;;5094246;28;20168;-62
2024/02/27 01:26:45;;;;;;;0.70;0.70;;;7.10;97.00;;;;;;5074252;28;20182;-62
2024/02/27 01:29:11;;;;;;;0.60;0.60;;;7.10;96.90;;;;;;5073938;28;20883;-62
2024/02/27 01:31:37;;;;;;;0.60;0.60;;;7.20;96.90;;;;;;5073222;28;20184;-62
2024/02/27 01:34:05;;;;;;;1.40;1.00;;;7.20;96.90;;;;;;5055653;28;20197;-62
2024/02/27 01:36:31;;;;;;;0.80;0.80;;;7.20;96.90;;;;;;5073804;28;20403;-62
2024/02/27 01:38:57;;;;;;;2.20;0.97;;;7.10;97.00;;;;;;5073695;28;20199;-62
2024/02/27 01:41:22;;;;;;;0.70;0.70;;;7.10;97.30;;;;;;5073815;28;20216;-62
2024/02/27 01:43:48;;;;;;;1.13;1.13;;;7.10;97.20;;;;;;5073867;28;20259;-62
2024/02/27 01:46:16;;;;;;;1.30;1.17;;;6.90;97.20;;;;;;5081551;28;20634;-62
2024/02/27 01:48:43;;;;;;;1.25;1.17;;;6.90;97.40;;;;;;5079597;28;20200;-62
2024/02/27 01:51:14;;;;;;;0.70;0.70;;;6.90;97.70;;;;;;5077945;28;20201;-62
2024/02/27 01:53:42;;;;;;;1.00;0.93;;;6.80;97.90;;;;;;5087645;22;20313;-62
2024/02/27 01:56:10;;;;;;;0.98;0.80;;;6.80;98.00;;;;;;5052665;28;20181;-62
2024/02/27 01:58:35;;;;;;;1.27;1.10;;;6.80;98.00;;;;;;5053386;28;20172;-62
2024/02/27 02:01:02;;;;;;;1.10;1.00;;;6.80;98.00;;;;;;5053670;28;20559;-62
2024/02/27 02:03:34;;;;;;;1.13;0.73;;;6.80;98.00;;;;;;5053502;28;20194;-63
2024/02/27 02:06:02;;;;;;;1.45;0.88;;;6.80;98.20;;;;;;5053575;28;20184;-62
2024/02/27 02:08:28;;;;;;;1.13;0.90;;;6.80;98.20;;;;;;5058280;28;20295;-62
2024/02/27 02:10:57;;;;;;;0.90;0.73;;;6.80;98.00;;;;;;5062273;28;20174;-62
2024/02/27 02:13:25;;;;;;;2.13;0.93;;;6.90;97.50;;;;;;5062594;28;20194;-62
2024/02/27 02:15:52;;;;;;;2.50;1.50;;;7.00;97.20;;;;;;5045991;28;20190;-62
2024/02/27 02:18:18;;;;;;;1.05;1.00;;;7.10;97.10;;;;;;5056789;28;20189;-62
2024/02/27 02:20:44;;;;;;;1.13;0.80;;;7.10;96.90;;;;;;5062375;28;20184;-62
2024/02/27 02:23:10;;;;;;;0.93;0.90;;;7.10;96.50;;;;;;5063608;28;20196;-62
2024/02/27 02:25:37;;;;;;;0.77;0.77;;;7.10;96.30;;;;;;5062078;28;20193;-62
2024/02/27 02:28:06;;;;;;;0.65;0.65;;;7.20;96.20;;;;;;5061949;28;20454;-62
2024/02/27 02:30:32;;;;;;;1.65;1.13;;;7.30;95.60;;;;;;5063518;28;20562;-62
2024/02/27 02:32:58;;;;;;;1.07;0.80;;;7.40;95.50;;;;;;5062113;28;20192;-62
2024/02/27 02:35:23;;;;;;;1.90;1.03;;;7.50;95.60;;;;;;5062034;28;20418;-62
2024/02/27 02:37:49;;;;;;;2.10;1.33;;;7.50;95.20;;;;;;5063201;28;20177;-62
2024/02/27 02:40:17;;;;;;;1.95;0.90;;;7.50;95.60;;;;;;5061765;28;20183;-62
2024/02/27 02:42:45;;;;;;;1.52;1.40;;;7.50;95.90;;;;;;5061884;28;20181;-62
2024/02/27 02:45:12;;;;;;;0.80;0.80;;;7.40;95.70;;;;;;5063329;28;20220;-61
2024/02/27 02:47:38;;;;;;;0.77;0.77;;;7.50;95.60;;;;;;5027070;28;20209;-61
2024/02/27 02:50:06;;;;;;;1.63;1.20;;;7.50;95.70;;;;;;5061564;28;20246;-62
2024/02/27 02:52:58;;;;;;;2.20;0.85;;;7.40;95.70;;;;;;5062796;28;20314;-62
2024/02/27 02:55:26;;;;;;;0.93;0.93;;;7.40;95.50;;;;;;5044031;28;20253;-62
2024/02/27 02:57:57;;;;;;;0.75;0.75;;;7.40;95.00;;;;;;5060629;28;20185;-62
2024/02/27 03:00:24;;;;;;;0.93;0.77;;;7.30;94.50;;;;;;5027947;28;20271;-62
2024/02/27 03:02:50;;;;;;;1.90;0.70;;;7.30;94.50;;;;;;5044570;28;20206;-62
2024/02/27 03:05:16;;;;;;;1.03;0.90;;;7.30;94.00;;;;;;5060374;28;20174;-62
2024/02/27 03:07:44;;;;;;;0.70;0.70;;;7.40;93.60;;;;;;5043654;28;20805;-62
2024/02/27 03:10:11;;;;;;;0.70;0.60;;;7.40;93.40;;;;;;5060905;28;20254;-62
2024/02/27 03:12:43;;;;;;;0.77;0.77;;;7.50;92.40;;;;;;5062064;28;20168;-62
2024/02/27 03:15:09;;;;;;;0.60;0.60;;;7.50;92.50;;;;;;5062627;28;20176;-62
2024/02/27 03:17:35;;;;;;;0.60;0.60;;;7.70;92.80;;;;;;5063638;28;20172;-62
2024/02/27 03:20:00;;;;;;;0.70;0.70;;;7.70;93.00;;;;;;5071876;28;20418;-62
2024/02/27 03:22:26;;;;;;;0.70;0.70;;;7.70;92.90;;;;;;5071373;28;20173;-62
2024/02/27 03:24:52;;;;;;;2.00;0.70;;;7.70;92.40;;;;;;5071261;28;20201;-62
2024/02/27 03:27:19;;;;;;;0.80;0.80;;;7.70;92.30;;;;;;5071746;28;20229;-62
2024/02/27 03:29:44;;;;;;;0.70;0.70;;;7.50;92.20;;;;;;5070458;28;20167;-62
2024/02/27 03:32:10;;;;;;;1.43;0.77;;;7.50;92.30;;;;;;5071906;28;20588;-62
2024/02/27 03:34:35;;;;;;;0.50;0.50;;;7.60;92.40;;;;;;5071855;28;20262;-62
2024/02/27 03:37:02;;;;;;;0.80;0.80;;;7.60;92.30;;;;;;5071954;28;20169;-62
2024/02/27 03:39:28;;;;;;;0.60;0.60;;;7.50;92.30;;;;;;5071656;28;20233;-62
2024/02/27 03:41:54;;;;;;;0.70;0.70;;;7.60;92.30;;;;;;5071749;28;20181;-62
2024/02/27 03:44:19;;;;;;;0.60;0.60;;;7.60;92.40;;;;;;5071575;28;20196;-62
2024/02/27 03:46:45;;;;;;;0.70;0.70;;;7.70;92.20;;;;;;5071657;28;20543;-62
2024/02/27 03:49:11;;;;;;;0.60;0.60;;;7.70;92.30;;;;;;5071540;28;20209;-62
2024/02/27 03:51:36;;;;;;;0.70;0.70;;;7.60;92.20;;;;;;5071602;28;20172;-62
2024/02/27 03:54:02;;;;;;;0.40;0.40;;;7.60;92.90;;;;;;5071538;28;20216;-62
2024/02/27 03:56:28;;;;;;;0.70;0.60;;;7.50;92.40;;;;;;5071609;28;20306;-62
2024/02/27 03:58:53;;;;;;;0.80;0.80;;;7.50;92.40;;;;;;5071261;28;20177;-62
2024/02/27 04:01:19;;;;;;;1.13;0.90;;;7.50;92.50;;;;;;5071546;28;20222;-62
2024/02/27 04:03:45;;;;;;;0.60;0.60;;;7.50;92.40;;;;;;5071401;28;20668;-62
2024/02/27 04:06:13;;;;;;;0.80;0.80;;;7.60;92.40;;;;;;5071412;28;20169;-62
2024/02/27 04:08:39;;;;;;;1.58;0.95;;;7.60;92.30;;;;;;5071092;28;20198;-62
2024/02/27 04:11:05;;;;;;;0.75;0.70;;;7.70;92.30;;;;;;5071507;28;20553;-62
2024/02/27 04:13:31;;;;;;;0.60;0.60;;;7.60;92.00;;;;;;5071192;28;20287;-62
2024/02/27 04:15:58;;;;;;;3.00;1.08;;;7.60;92.40;;;;;;5071390;28;20176;-62
2024/02/27 04:18:23;;;;;;;0.60;0.60;;;7.60;92.30;;;;;;5071179;28;20172;-62
2024/02/27 04:20:49;;;;;;;1.70;0.63;;;7.70;92.40;;;;;;5074681;28;20177;-62
2024/02/27 04:23:15;;;;;;;0.70;0.70;;;7.70;92.30;;;;;;5075345;28;20189;-62
2024/02/27 04:25:40;;;;;;;0.73;0.70;;;7.70;92.20;;;;;;5075449;28;20184;-62
2024/02/27 04:28:06;;;;;;;2.10;0.93;;;7.70;92.60;;;;;;5075046;28;20273;-62
2024/02/27 04:30:32;;;;;;;1.43;0.80;;;7.70;92.50;;;;;;5075473;28;20169;-62
2024/02/27 04:32:58;;;;;;;0.60;0.60;;;7.70;92.80;;;;;;5075379;28;20230;-62
2024/02/27 04:35:24;;;;;;;0.80;0.70;;;7.80;92.80;;;;;;5075229;28;20177;-62
2024/02/27 04:37:49;;;;;;;1.10;0.53;;;7.80;92.80;;;;;;5074923;28;20413;-62
2024/02/27 04:40:15;;;;;;;1.37;0.63;;;7.80;92.90;;;;;;5075166;28;20541;-62
2024/02/27 04:42:41;;;;;;;0.67;0.67;;;7.80;93.10;;;;;;5074902;28;20192;-62
2024/02/27 04:45:07;;;;;;;0.65;0.63;;;7.90;93.10;;;;;;5075322;28;20206;-62
2024/02/27 04:47:33;;;;;;;2.60;0.73;;;7.90;92.80;;;;;;5074679;28;20228;-62
2024/02/27 04:49:58;;;;;;;0.90;0.90;;;7.80;92.90;;;;;;5074942;28;20281;-62
2024/02/27 04:52:24;;;;;;;0.60;0.60;;;7.70;93.00;;;;;;5074898;28;20220;-62
2024/02/27 04:54:50;;;;;;;1.67;0.63;;;7.70;93.10;;;;;;5074782;28;20246;-62
2024/02/27 04:57:15;;;;;;;0.83;0.80;;;7.60;93.00;;;;;;5074400;28;20423;-62
2024/02/27 04:59:41;;;;;;;0.70;0.70;;;7.70;93.20;;;;;;5074707;28;20183;-62
2024/02/27 05:02:07;;;;;;;0.60;0.60;;;7.70;93.30;;;;;;5074694;28;20536;-62
2024/02/27 05:04:32;;;;;;;0.60;0.50;;;7.60;93.40;;;;;;5074582;28;20654;-62
2024/02/27 05:06:58;;;;;;;0.77;0.60;;;7.60;93.40;;;;;;5074538;28;20180;-62
2024/02/27 05:09:24;;;;;;;0.57;0.57;;;7.60;93.40;;;;;;5074385;28;20556;-62
2024/02/27 05:11:49;;;;;;;1.33;0.80;;;7.60;93.20;;;;;;5074391;28;20650;-62
2024/02/27 05:14:15;;;;;;;1.17;0.60;;;7.70;93.30;;;;;;5074443;28;20246;-62
2024/02/27 05:16:41;;;;;;;0.80;0.70;;;7.50;93.40;;;;;;5074434;28;20757;-62
2024/02/27 05:19:08;;;;;;;1.00;0.70;;;7.40;93.30;;;;;;5074303;28;20180;-62
2024/02/27 05:21:34;;;;;;;1.00;0.90;;;7.40;93.50;;;;;;5074407;28;20473;-62
2024/02/27 05:23:59;;;;;;;1.17;0.83;;;7.40;93.40;;;;;;5074241;28;20201;-62
2024/02/27 05:26:26;;;;;;;0.57;0.57;;;7.40;93.40;;;;;;5074153;28;20183;-62
2024/02/27 05:28:51;;;;;;;1.40;0.65;;;7.40;93.00;;;;;;5073831;28;20464;-62
2024/02/27 05:31:26;;;;;;;0.50;0.50;;;7.40;92.90;;;;;;5074148;28;20169;-62
2024/02/27 05:33:52;;;;;;;0.80;0.77;;;7.30;93.00;;;;;;5074027;28;20244;-62
2024/02/27 05:36:18;;;;;;;0.50;0.50;;;7.30;93.00;;;;;;5074035;28;20177;-62
2024/02/27 05:38:44;;;;;;;0.50;0.50;;;7.30;93.70;;;;;;5073850;28;20177;-62
2024/02/27 05:41:10;;;;;;;0.80;0.70;;;7.30;93.60;;;;;;5073894;28;20181;-62
2024/02/27 05:43:36;;;;;;;0.40;0.40;;;7.40;94.00;;;;;;5073904;28;20694;-62
2024/02/27 05:46:05;;;;;;;0.53;0.53;;;7.20;93.40;;;;;;5074038;28;20255;-62
2024/02/27 05:48:31;;;;;;;0.93;0.88;;;7.20;94.00;;;;;;5073631;28;20454;-62
2024/02/27 05:50:57;;;;;;;0.75;0.50;;;7.20;93.60;;;;;;5073872;28;20229;-62
2024/02/27 05:53:24;;;;;;;0.90;0.90;;;7.10;93.90;;;;;;5073557;28;20290;-62
2024/02/27 05:55:50;;;;;;;1.80;1.70;;;7.00;94.40;;;;;;5073675;28;20518;-62
2024/02/27 05:58:16;;;;;;;0.80;0.73;;;7.10;94.40;;;;;;5073433;28;20187;-62
2024/02/27 06:00:41;;;;;;;0.50;0.50;;;7.20;94.20;;;;;;5073634;28;20408;-62
2024/02/27 06:03:08;;;;;;;0.87;0.80;;;7.20;94.40;;;;;;5073496;28;20192;-62
2024/02/27 06:05:34;;;;;;;1.40;1.30;;;7.20;94.60;;;;;;5073539;28;20181;-62
2024/02/27 06:08:00;;;;;;;5.20;0.90;;;7.20;94.70;;;;;;5073610;28;20200;-62
2024/02/27 06:10:27;;;;;;;0.60;0.60;;;7.10;94.40;;;;;;5073933;28;20408;-62
2024/02/27 06:12:52;;;;;;;1.60;0.70;;;7.10;94.60;;;;;;5073257;28;20565;-62
2024/02/27 06:15:18;;;;;;;0.90;0.90;;;7.20;94.60;;;;;;5055425;28;20176;-62
2024/02/27 06:17:44;;;;;;;0.70;0.70;;;7.10;94.70;;;;;;5073027;28;20179;-62
2024/02/27 06:22:10;;;;;;;0.70;0.70;;;7.20;94.80;;;;;;5073360;28;20187;-62
2024/02/27 06:22:55;;;;;;;0.85;0.85;;;7.10;94.90;;;;;;5072861;28;20200;-62
2024/02/27 06:25:21;;;;;;;1.17;1.10;;;7.10;95.20;;;;;;5073204;28;20311;-62
2024/02/27 06:27:48;;;;;;;1.10;0.80;;;7.20;95.10;;;;;;5072017;28;20288;-62
2024/02/27 06:30:15;;;;;;;0.98;0.90;;;7.10;95.00;;;;;;5072917;28;20407;-62
2024/02/27 06:32:40;;;;;;;2.05;0.95;;;7.00;95.10;;;;;;5072871;28;20509;-62
2024/02/27 06:35:07;;;;;;;1.03;0.93;;;7.00;95.60;;;;;;5072983;28;20187;-62
2024/02/27 06:37:35;;;;;;;1.27;1.17;;;7.00;95.40;;;;;;5072518;28;20222;-62
2024/02/27 06:40:04;;;;;;;0.93;0.90;;;6.90;95.60;;;;;;5072827;28;20195;-62
2024/02/27 06:42:36;;;;;;;0.88;0.88;;;6.90;95.70;;;;;;5072159;28;20176;-62
2024/02/27 06:45:06;;;;;;;0.90;0.90;;;6.90;95.70;;;;;;5072730;28;20786;-62
2024/02/27 06:47:32;;;;;;;0.70;0.70;;;6.80;95.70;;;;;;5072376;28;20208;-62
2024/02/27 06:49:59;;;;;;;0.50;0.50;;;6.90;95.70;;;;;;5072435;28;20524;-62
2024/02/27 06:52:25;;;;;;;1.52;1.27;;;7.00;95.40;;;;;;5054659;28;20421;-62
2024/02/27 06:54:51;;;;;;;0.50;0.50;;;7.10;95.20;;;;;;5072397;28;20294;-62
2024/02/27 06:57:18;;;;;;;0.55;0.55;;;7.10;95.20;;;;;;5072298;28;20463;-62
2024/02/27 06:59:44;;;;;;;0.85;0.85;;;7.00;95.30;;;;;;5072437;28;20580;-62
2024/02/27 07:02:10;;;;;;;0.87;0.70;;;7.10;95.20;;;;;;5072344;28;20215;-62
2024/02/27 07:04:36;;;;;;;0.80;0.60;;;7.20;95.20;;;;;;5072185;28;20196;-62
2024/02/27 07:07:04;;;;;;;0.77;0.77;;;7.10;95.00;;;;;;5072115;28;20406;-62
2024/02/27 07:09:32;;;;;;;2.25;0.75;;;7.10;95.00;;;;;;5072024;28;20176;-62
2024/02/27 07:12:01;;;;;;;1.08;0.98;;;7.20;94.90;;;;;;5072205;28;20165;-62
2024/02/27 07:14:28;;;;;;;0.80;0.80;;;7.30;95.00;;;;;;5071973;28;20197;-62
2024/02/27 07:16:54;;;;;;;0.75;0.75;;;7.50;94.50;;;;;;5070574;28;20170;-62
2024/02/27 07:19:21;;;;;;;0.97;0.70;;;7.70;94.20;;;;;;5072221;28;20173;-62
2024/02/27 07:21:51;;;;;;;2.25;0.93;;;7.60;93.80;;;;;;5072066;28;20404;-62
2024/02/27 07:24:17;;;;;;;0.77;0.77;;;7.70;93.80;;;;;;5072255;28;20766;-62
2024/02/27 07:26:44;;;;;;;0.60;0.60;;;7.90;94.10;;;;;;5069867;28;20212;-62
2024/02/27 07:29:13;;;;;;;0.90;0.90;;;8.00;93.50;;;;;;5053505;28;20638;-62
2024/02/27 07:31:39;;;;;;;1.00;1.00;;;8.10;93.30;;;;;;5034046;28;20169;-62
2024/02/27 07:34:05;;;;;;;0.70;0.70;;;8.30;93.10;;;;;;5062700;28;20198;-62
2024/02/27 07:36:32;;;;;;;0.60;0.60;;;8.00;92.60;;;;;;5061413;28;20247;-62
2024/02/27 07:38:58;;;;;;;0.70;0.70;;;7.80;92.80;;;;;;5051570;28;20632;-62
2024/02/27 07:41:24;;;;;;;0.60;0.60;;;8.00;93.00;;;;;;5052280;28;20209;-62
2024/02/27 07:43:50;;;;;;;0.88;0.88;;;8.20;93.10;;;;;;5059742;28;20190;-62
2024/02/27 07:46:16;;;;;;;1.20;1.10;;;8.30;92.40;;;;;;5061725;28;20704;-62
2024/02/27 07:48:47;;;;;;;3.25;0.85;;;8.30;92.00;;;;;;5058530;28;20197;-62
2024/02/27 07:51:26;;;;;;;0.50;0.50;;;8.30;92.20;;;;;;5060834;28;20547;-62
2024/02/27 07:53:52;;;;;;;0.75;0.70;;;8.30;92.30;;;;;;5063294;28;20666;-62
2024/02/27 07:56:18;;;;;;;0.73;0.70;;;7.90;92.50;;;;;;5071755;28;20223;-63
2024/02/27 07:58:43;;;;;;;1.67;0.70;;;7.80;93.00;;;;;;5070387;28;20227;-62
2024/02/27 08:01:09;;;;;;;1.70;1.20;;;8.00;93.10;;;;;;5071325;28;20659;-62
2024/02/27 08:03:35;;;;;;;0.70;0.70;;;8.00;92.80;;;;;;5071431;28;20275;-62
2024/02/27 08:06:01;;;;;;;1.20;1.15;;;7.90;93.20;;;;;;5071523;28;20181;-62
2024/02/27 08:08:27;;;;;;;0.77;0.73;;;8.00;92.80;;;;;;5071383;28;20566;-62
2024/02/27 08:10:55;;;;;;;0.77;0.77;;;8.00;93.10;;;;;;5071424;28;20513;-62
2024/02/27 08:13:21;;;;;;;1.10;0.93;;;7.90;93.20;;;;;;5071130;28;20201;-62
2024/02/27 08:15:47;;;;;;;1.42;1.05;;;8.00;93.20;;;;;;5071371;28;20211;-62
2024/02/27 08:18:13;;;;;;;0.97;0.87;;;8.10;93.00;;;;;;5071121;28;20655;-62
2024/02/27 08:20:38;;;;;;;0.70;0.70;;;8.20;92.60;;;;;;5071353;28;20184;-62
2024/02/27 08:23:04;;;;;;;0.77;0.60;;;8.20;92.70;;;;;;5071270;28;20200;-62
2024/02/27 08:25:30;;;;;;;0.70;0.67;;;8.10;92.70;;;;;;5071272;28;20613;-62
2024/02/27 08:27:55;;;;;;;1.10;0.90;;;8.20;92.80;;;;;;5070873;28;20451;-62
2024/02/27 08:30:21;;;;;;;0.87;0.60;;;8.40;92.30;;;;;;5071422;28;20548;-62
2024/02/27 08:32:47;;;;;;;0.70;0.70;;;8.60;92.60;;;;;;5071278;28;20170;-62
2024/02/27 08:35:12;;;;;;;1.03;0.90;;;8.90;92.40;;;;;;5071180;28;20162;-62
2024/02/27 08:37:38;;;;;;;1.30;1.10;;;9.00;92.10;;;;;;5070892;28;20252;-62
2024/02/27 08:40:04;;;;;;;2.40;0.80;;;9.10;91.80;;;;;;5071142;28;20178;-62
2024/02/27 08:42:30;;;;;;;0.68;0.68;;;8.90;92.20;;;;;;5071445;28;20413;-62
2024/02/27 08:44:56;;;;;;;0.60;0.60;;;8.80;92.20;;;;;;5071256;28;20170;-62
2024/02/27 08:47:22;;;;;;;0.97;0.90;;;8.80;92.00;;;;;;5070704;28;20248;-62
2024/02/27 08:49:48;;;;;;;1.93;1.20;;;8.80;91.90;;;;;;5071086;28;20174;-62
2024/02/27 08:52:13;;;;;;;0.87;0.87;;;8.60;92.10;;;;;;5069766;28;20435;-61
2024/02/27 08:54:39;;;;;;;2.10;1.07;;;8.50;92.50;;;;;;5049524;28;20225;-64
2024/02/27 08:57:05;;;;;;;1.30;1.20;;;8.50;93.00;;;;;;5050633;28;20269;-63
2024/02/27 08:59:30;;;;;;;0.83;0.83;;;8.50;92.80;;;;;;5050528;28;20182;-63
2024/02/27 09:01:56;;;;;;;1.00;1.00;;;8.60;92.40;;;;;;5049686;28;20663;-64
2024/02/27 09:04:22;;;;;;;1.10;1.07;;;8.60;92.60;;;;;;5050679;28;20676;-64
2024/02/27 09:06:47;;;;;;;2.10;0.90;;;8.70;92.70;;;;;;5053695;28;20735;-64
2024/02/27 09:09:13;;;;;;;1.23;0.90;;;8.70;92.30;;;;;;5054376;28;20206;-65
2024/02/27 09:11:38;;;;;;;0.80;0.80;;;8.70;92.20;;;;;;5056057;28;20178;-64
2024/02/27 09:14:05;;;;;;;1.80;0.90;;;8.80;92.20;;;;;;5054549;28;20194;-63
2024/02/27 09:16:31;;;;;;;0.80;0.80;;;8.90;92.40;;;;;;5054473;28;20216;-64
2024/02/27 09:18:56;;;;;;;1.80;0.90;;;9.10;92.20;;;;;;5054231;28;20644;-64
2024/02/27 09:21:23;;;;;;;0.53;0.53;;;9.20;91.90;;;;;;5062998;28;20217;-64
2024/02/27 09:23:50;;;;;;;0.73;0.73;;;9.10;91.70;;;;;;5074214;28;20255;-64
2024/02/27 09:26:16;;;;;;;0.98;0.90;;;9.10;91.60;;;;;;5074096;28;20212;-64
2024/02/27 09:28:42;;;;;;;0.63;0.63;;;9.10;91.70;;;;;;5072198;28;20628;-64
2024/02/27 09:31:08;;;;;;;1.73;0.80;;;9.30;90.80;;;;;;5072539;28;20170;-64
2024/02/27 09:33:33;;;;;;;0.80;0.80;;;9.30;90.70;;;;;;5072237;28;20196;-64
2024/02/27 09:35:59;;;;;;;0.80;0.70;;;9.50;90.60;;;;;;5072643;28;20559;-64
2024/02/27 09:38:25;;;;;;;0.90;0.90;;;9.70;90.20;;;;;;5072829;28;20177;-64
2024/02/27 09:40:54;;;;;;;0.90;0.90;;;9.60;90.10;;;;;;5073354;28;20260;-64
2024/02/27 09:43:23;;;;;;;0.90;0.50;;;9.40;89.70;;;;;;5073719;28;20197;-64
2024/02/27 09:45:48;;;;;;;0.80;0.80;;;9.30;90.00;;;;;;5074100;28;20177;-64
2024/02/27 09:48:18;;;;;;;0.67;0.67;;;9.40;90.20;;;;;;5073645;28;20655;-64
2024/02/27 09:50:47;;;;;;;0.82;0.52;;;9.30;90.10;;;;;;5073909;28;20602;-64
2024/02/27 09:53:13;;;;;;;1.58;0.75;;;9.30;89.40;;;;;;5073579;28;20213;-64
2024/02/27 09:55:39;;;;;;;0.90;0.90;;;9.20;89.40;;;;;;5073970;28;20189;-64
2024/02/27 09:58:07;;;;;;;0.77;0.77;;;8.90;90.30;;;;;;5073444;28;20269;-64
2024/02/27 10:00:33;;;;;;;0.60;0.60;;;8.90;90.50;;;;;;5073869;28;20174;-64
2024/02/27 10:03:00;;;;;;;2.50;0.90;;;8.90;90.70;;;;;;5073566;28;20197;-64
2024/02/27 10:05:27;;;;;;;1.20;1.00;;;9.10;91.10;;;;;;5073662;28;20764;-64
2024/02/27 10:07:53;;;;;;;2.78;1.38;;;9.30;89.80;;;;;;5073273;28;20205;-64
2024/02/27 10:10:19;;;;;;;0.70;0.70;;;9.20;90.10;;;;;;5073587;28;20168;-64
2024/02/27 10:12:44;;;;;;;0.93;0.90;;;9.20;90.70;;;;;;5073507;28;20461;-64
2024/02/27 10:15:10;;;;;;;0.73;0.63;;;9.60;90.00;;;;;;5073415;28;20177;-64
2024/02/27 10:17:38;;;;;;;1.20;0.77;;;9.70;90.10;;;;;;5072224;28;20166;-64
2024/02/27 10:20:10;;;;;;;1.45;1.05;;;9.80;88.20;;;;;;5073332;28;20188;-64
2024/02/27 10:22:39;;;;;;;0.75;0.75;;;9.90;89.00;;;;;;5064128;28;20268;-63
2024/02/27 10:25:07;;;;;;;0.80;0.80;;;10.00;88.40;;;;;;5053397;28;20184;-63
2024/02/27 10:27:35;;;;;;;1.67;0.90;;;10.20;87.40;;;;;;5052888;28;20202;-63
2024/02/27 10:30:01;;;;;;;0.80;0.80;;;10.10;86.80;;;;;;5053159;28;20409;-62
2024/02/27 10:32:31;;;;;;;1.80;0.90;;;10.00;87.10;;;;;;5052558;28;20392;-63
2024/02/27 10:34:57;;;;;;;1.20;1.10;;;10.20;86.40;;;;;;5052718;28;20181;-63
2024/02/27 10:37:28;;;;;;;0.93;0.73;;;10.40;85.60;;;;;;5052474;28;20589;-63
2024/02/27 10:39:56;;;;;;;1.70;0.70;;;10.10;85.10;;;;;;5053048;28;20181;-63
2024/02/27 10:42:22;;;;;;;0.73;0.73;;;9.90;88.50;;;;;;5052803;28;20228;-63
2024/02/27 10:44:48;;;;;;;1.33;1.23;;;10.00;88.80;;;;;;5052767;28;20428;-64
2024/02/27 10:47:14;;;;;;;1.20;1.10;;;10.30;87.40;;;;;;5052664;28;20758;-64
2024/02/27 10:49:42;;;;;;;1.58;1.20;;;10.30;86.20;;;;;;5053121;28;20228;-63
2024/02/27 10:52:11;;;;;;;2.58;0.85;;;10.30;84.70;;;;;;5069194;28;20670;-63
2024/02/27 10:54:37;;;;;;;1.48;1.35;;;9.80;87.40;;;;;;5072501;28;20201;-61
2024/02/27 10:57:04;;;;;;;1.63;1.25;;;9.70;88.30;;;;;;5070463;28;20173;-61
2024/02/27 10:59:33;;;;;;;4.03;1.30;;;9.80;88.50;;;;;;5066281;28;20303;-60
2024/02/27 11:02:00;;;;;;;1.60;0.93;;;10.10;87.70;;;;;;5037157;28;20428;-62
2024/02/27 11:04:37;;;;;;;0.90;0.90;;;10.40;87.20;;;;;;5068561;28;20201;-61
2024/02/27 11:07:05;;;;;;;2.23;1.23;;;10.60;85.30;;;;;;5072502;28;20872;-61
2024/02/27 11:09:32;;;;;;;1.65;1.33;;;10.70;85.10;;;;;;5072131;28;20527;-61
2024/02/27 11:12:05;;;;;;;1.10;1.00;;;10.50;86.50;;;;;;5072313;28;20177;-61
2024/02/27 11:14:37;;;;;;;1.17;0.97;;;10.70;86.00;;;;;;5072251;28;20658;-62
2024/02/27 11:17:12;;;;;;;1.25;1.25;;;10.80;85.20;;;;;;5072297;28;20400;-61
2024/02/27 11:19:43;;;;;;;1.20;1.00;;;10.90;84.60;;;;;;5072389;28;20661;-61
2024/02/27 11:22:10;;;;;;;1.10;1.00;;;11.20;84.80;;;;;;5072171;28;20419;-61
2024/02/27 11:24:36;;;;;;;1.40;1.30;;;11.30;83.60;;;;;;5072023;28;20791;-61
2024/02/27 11:27:02;;;;;;;3.03;1.20;;;11.60;82.50;;;;;;5071911;28;20532;-61
2024/02/27 11:29:29;;;;;;;2.93;1.03;;;11.70;82.10;;;;;;5071588;28;20454;-61
2024/02/27 11:31:55;;;;;;;2.47;1.13;;;11.70;81.50;;;;;;5071972;28;20197;-61
2024/02/27 11:34:24;;;;;;;2.63;1.23;;;11.70;81.80;;;;;;5071964;28;20432;-62
2024/02/27 11:37:14;;;;;;;1.30;1.20;;;11.70;81.00;;;;;;5071946;28;20896;-61
2024/02/27 11:39:41;;;;;;;1.87;1.30;;;11.70;82.30;;;;;;5071873;28;20392;-61
2024/02/27 11:42:20;;;;;;;2.17;1.40;;;11.80;81.20;;;;;;5071989;28;20427;-62
2024/02/27 11:45:09;;;;;;;2.30;1.20;;;11.80;80.30;;;;;;5071752;28;20422;-61
2024/02/27 11:47:38;;;;;;;1.67;1.03;;;11.70;78.30;;;;;;5071069;28;20524;-61
2024/02/27 11:50:08;;;;;;;1.70;1.60;;;11.70;79.00;;;;;;5071766;28;20424;-61
2024/02/27 11:52:34;;;;;;;1.33;1.03;;;11.60;80.50;;;;;;5071484;28;20406;-61
2024/02/27 11:55:11;;;;;;;1.63;1.53;;;11.60;80.20;;;;;;5071870;28;20917;-61
2024/02/27 11:57:37;;;;;;;1.80;1.47;;;11.30;79.40;;;;;;5071231;28;20412;-61
2024/02/27 12:00:14;;;;;;;1.57;1.47;;;11.30;79.60;;;;;;5071642;28;20412;-62
2024/02/27 12:02:44;;;;;;;1.47;1.37;;;11.00;80.20;;;;;;5070991;28;20490;-62
2024/02/27 12:05:10;;;;;;;1.50;1.40;;;11.10;82.20;;;;;;5071782;28;20403;-62
2024/02/27 12:07:36;;;;;;;1.43;1.33;;;11.10;80.60;;;;;;5071285;28;21014;-62
2024/02/27 12:10:10;;;;;;;1.60;1.40;;;11.00;79.00;;;;;;5071629;28;20245;-62
2024/02/27 12:12:40;;;;;;;1.83;1.33;;;10.90;79.40;;;;;;5071317;28;20257;-62
2024/02/27 12:15:08;;;;;;;2.00;1.47;;;11.00;81.30;;;;;;5071657;28;20473;-62
2024/02/27 12:17:36;;;;;;;2.00;1.17;;;10.90;81.60;;;;;;5071334;28;20411;-62
2024/02/27 12:20:06;;;;;;;3.50;1.23;;;11.00;81.40;;;;;;5071523;28;20897;-62
2024/02/27 12:22:38;;;;;;;1.27;1.20;;;11.30;80.40;;;;;;5070887;28;20420;-63
2024/02/27 12:25:04;;;;;;;1.50;1.40;;;11.20;80.50;;;;;;5071302;28;20498;-64
2024/02/27 12:27:32;;;;;;;4.00;1.30;;;11.10;79.70;;;;;;5070832;28;20419;-63
2024/02/27 12:29:58;;;;;;;1.07;1.07;;;11.10;79.20;;;;;;5071301;28;20411;-64
2024/02/27 12:32:24;;;;;;;3.20;0.97;;;11.00;79.20;;;;;;5071285;28;20400;-63
2024/02/27 12:34:50;;;;;;;1.47;0.90;;;11.20;79.70;;;;;;5071214;28;20430;-64
2024/02/27 12:37:18;;;;;;;1.53;1.03;;;11.40;79.80;;;;;;5071027;28;20176;-64
2024/02/27 12:39:47;;;;;;;1.30;1.20;;;11.60;77.50;;;;;;5071046;28;20173;-64
2024/02/27 12:42:15;;;;;;;1.70;1.40;;;11.60;78.00;;;;;;5075074;28;20411;-64
2024/02/27 12:44:47;;;;;;;1.30;1.20;;;11.40;78.30;;;;;;5074714;28;20428;-64
2024/02/27 12:47:13;;;;;;;1.30;1.20;;;11.50;78.00;;;;;;5074424;28;20506;-64
2024/02/27 12:49:39;;;;;;;1.80;1.70;;;11.60;76.80;;;;;;5074708;28;20498;-63
2024/02/27 12:52:15;;;;;;;2.33;1.50;;;11.90;77.20;;;;;;5074687;28;20495;-64
2024/02/27 12:54:42;;;;;;;1.03;1.03;;;12.00;74.80;;;;;;5074815;28;20538;-64